DW8294 Vamhus SE current weather conditions

sailwx.info

Wind from 229 at 1 knots gusting 14

Air temperature 14.4° C
Dewpoint 5.5° C

Last reported at 2019-Sep-15 14:00 UTC.
Time now 2019-Sep-15 14:31 UTC

Location: N 61°08' E 014°25'.
View on Google Maps.

See reports from other nearby stations

  
Tides and Currents Weather Stations Pressure Air Temp Water Temp Dewpoint Dewpoint Depression Visibility Wind Speed Wind Dir Waves Ship Positions
date/time (UTC)wind fromknots sea level pressurealtimeterstation pressurevisibilityair tempwater tempwave heightnotes
2019-Sep-15 14:00 229 1 gusting 14 14.4
2019-Sep-15 13:45 231 4 gusting 14 14.4
2019-Sep-15 13:30 261 1 gusting 9 13.3
2019-Sep-15 13:15 264 3 gusting 10 13.3
2019-Sep-15 13:02 320 6 gusting 14 12.8
2019-Sep-15 13:00 238 4 gusting 9 12.8
2019-Sep-15 12:46 279 3 gusting 13 12.8
2019-Sep-15 12:32 320 3 gusting 9 12.8
2019-Sep-15 12:17 280 4 gusting 15 12.8
2019-Sep-15 12:02 273 12 gusting 21 13.3
2019-Sep-15 11:46 320 6 gusting 19 13.3
2019-Sep-15 11:31 285 6 gusting 19 13.3
2019-Sep-15 11:18 320 7 gusting 19 13.3
2019-Sep-15 11:01 272 13 gusting 18 12.8
2019-Sep-15 10:46 320 10 gusting 15 12.8
2019-Sep-15 10:31 247 6 gusting 15 12.2
2019-Sep-15 10:18 320 7 gusting 15 12.2
2019-Sep-15 10:01 270 11 gusting 21 12.2
2019-Sep-15 09:47 315 7 gusting 24 12.2
2019-Sep-15 09:32 300 6 gusting 21 12.2
2019-Sep-15 09:17 289 12 gusting 23 12.2
2019-Sep-15 09:01 285 13 gusting 23 11.7
2019-Sep-15 08:46 285 8 gusting 19 11.1
2019-Sep-15 08:32 294 9 gusting 21 11.1
2019-Sep-15 08:16 320 6 gusting 19 11.1
2019-Sep-15 08:01 259 11 gusting 17 10.6
2019-Sep-15 07:46 258 8 gusting 21 10.6
2019-Sep-15 07:30 293 6 gusting 13 10.0
2019-Sep-15 07:16 267 6 gusting 13 9.4
2019-Sep-15 07:00 269 7 gusting 17 9.4
2019-Sep-15 06:45 287 5 gusting 13 8.9
2019-Sep-15 06:31 248 5 gusting 11 8.3
2019-Sep-15 06:16 287 2 gusting 7 7.8
2019-Sep-15 06:01 258 1 gusting 7 7.8
2019-Sep-15 05:46 299 0 gusting 6 7.2
2019-Sep-15 05:31 276 7.2
2019-Sep-15 05:16 261 3 gusting 10 7.2
2019-Sep-15 05:01 320 7.2
2019-Sep-15 04:46 267 1 gusting 8 7.2
2019-Sep-15 04:31 320 5 gusting 13 7.2
2019-Sep-15 04:16 243 6 gusting 12 6.7
2019-Sep-15 04:00 280 1 gusting 5 6.7
2019-Sep-15 03:46 187 7.2
2019-Sep-15 03:30 320 7.8
2019-Sep-15 03:15 116 8.3
2019-Sep-15 03:00 344 8.9
2019-Sep-15 02:45 250 3 gusting 13 8.9
2019-Sep-15 02:30 265 6 gusting 13 8.9
2019-Sep-15 02:15 181 1 gusting 7 8.9
2019-Sep-15 02:00 238 8.9
2019-Sep-15 01:45 227 1 gusting 6 8.9
2019-Sep-15 01:30 320 1 gusting 5 8.9
2019-Sep-15 01:15 269 0 gusting 5 8.9
2019-Sep-15 01:02 214 8.9
2019-Sep-15 01:00 106 8.9
2019-Sep-15 00:46 258 0 gusting 6 8.9
2019-Sep-15 00:31 320 0 gusting 8 8.9
2019-Sep-15 00:16 251 2 gusting 10 8.9
2019-Sep-15 00:02 162 0 gusting 6 8.9
2019-Sep-14 23:46 233 1 gusting 6 8.9
2019-Sep-14 23:33 320 2 gusting 7 8.9
2019-Sep-14 23:16 147 0 gusting 8 8.9
2019-Sep-14 23:01 246 8.9
2019-Sep-14 22:46 210 1 gusting 6 8.9
2019-Sep-14 22:30 229 2 gusting 11 8.3
2019-Sep-14 22:15 171 0 gusting 4 8.3
2019-Sep-14 22:00 138 8.3
2019-Sep-14 21:45 136 8.3
2019-Sep-14 21:30 138 8.3
2019-Sep-14 21:15 115 7.8
2019-Sep-14 21:00 113 7.8
2019-Sep-14 20:45 107 7.8
2019-Sep-14 20:30 320 7.8
2019-Sep-14 20:15 129 0 gusting 3 7.8
2019-Sep-14 19:50 115 8.3
2019-Sep-14 19:32 169 1 gusting 7 8.3
2019-Sep-14 19:16 320 1 gusting 6 8.9
2019-Sep-14 19:01 235 1 gusting 8 8.9
2019-Sep-14 18:47 320 6 gusting 10 9.4
2019-Sep-14 18:31 257 5 gusting 13 9.4
2019-Sep-14 18:16 320 8 gusting 18 8.9
2019-Sep-14 18:01 320 2 gusting 6 8.3
2019-Sep-14 17:46 213 8.3
2019-Sep-14 17:30 208 8.9
2019-Sep-14 17:15 195 9.4
2019-Sep-14 17:01 214 10.0
2019-Sep-14 16:45 214 1 gusting 5 10.6
2019-Sep-14 16:31 206 11.1
2019-Sep-14 16:15 220 0 gusting 2 11.7
2019-Sep-14 16:00 236 11.7
2019-Sep-14 15:45 264 11.7
2019-Sep-14 15:30 263 0 gusting 4 11.7
2019-Sep-14 15:15 251 0 gusting 4 12.2
2019-Sep-14 15:00 214 12.2
2019-Sep-14 14:45 232 2 gusting 9 12.8
2019-Sep-14 14:31 208 12.8
2019-Sep-14 14:17 255 12.8
2019-Sep-14 14:03 294 3 gusting 8 13.3
2019-Sep-14 13:48 294 3 gusting 9 13.3
2019-Sep-14 13:33 245 3 gusting 11 13.9
2019-Sep-14 13:16 265 6 gusting 11 13.9
2019-Sep-14 13:01 269 3 gusting 11 13.9
2019-Sep-14 12:46 264 4 gusting 9 13.9
2019-Sep-14 12:31 257 2 gusting 7 13.9
2019-Sep-14 12:16 263 3 gusting 7 13.9
2019-Sep-14 12:01 241 4 gusting 11 13.9
2019-Sep-14 11:46 290 5 gusting 10 13.3
2019-Sep-14 11:32 287 5 gusting 12 13.3
2019-Sep-14 11:16 320 7 gusting 11 13.3
2019-Sep-14 11:01 213 6 gusting 10 13.3
2019-Sep-14 10:47 303 0 gusting 9 13.3
2019-Sep-14 10:31 320 5 gusting 8 12.8
2019-Sep-14 10:17 320 6 gusting 11 12.8
2019-Sep-14 10:01 285 5 gusting 13 12.8
2019-Sep-14 09:46 298 9 gusting 15 12.8
2019-Sep-14 09:31 273 5 gusting 12 12.2
2019-Sep-14 09:16 250 3 gusting 8 11.1
2019-Sep-14 09:01 288 4 gusting 11 10.0
2019-Sep-14 08:45 262 2 gusting 11 8.9
2019-Sep-14 08:31 325 1 gusting 3 8.9
2019-Sep-14 08:16 309 3 gusting 7 8.3
2019-Sep-14 08:00 320 4 gusting 6 7.8
2019-Sep-14 07:45 287 3 gusting 7 6.7
2019-Sep-14 07:30 331 1 gusting 9 5.6
2019-Sep-14 07:15 311 4.4
2019-Sep-14 07:00 320 3.3
2019-Sep-14 06:45 311 2.2
2019-Sep-14 06:30 320 1.7
2019-Sep-14 06:15 287 0 gusting 2 1.1
2019-Sep-14 06:00 320 0.6
2019-Sep-14 05:45 285 -0.0
2019-Sep-14 05:30 287 -0.6
2019-Sep-14 05:15 292 -0.6
2019-Sep-14 05:00 298 -0.6
2019-Sep-14 04:47 299 1 gusting 3 -0.6
2019-Sep-14 04:32 262 -0.6
2019-Sep-14 04:16 320 -0.0
2019-Sep-14 04:01 249 -0.0
2019-Sep-14 03:46 320 -0.0
2019-Sep-14 03:31 262 0 gusting 2 0.6
2019-Sep-14 03:16 320 0.6
2019-Sep-14 03:01 263 0.6
2019-Sep-14 02:47 320 1.1
2019-Sep-14 02:31 262 0 gusting 3 1.1
2019-Sep-14 02:17 320 0 gusting 2 1.1
2019-Sep-14 02:01 289 1.1
2019-Sep-14 01:46 014 1.1
2019-Sep-14 01:31 015 1.1
2019-Sep-14 01:16 315 1.1
2019-Sep-14 01:01 248 5 gusting 9 1.7
2019-Sep-14 00:45 348 1.7
2019-Sep-14 00:30 287 1 gusting 3 2.2
2019-Sep-14 00:15 348 2.2
2019-Sep-14 00:00 338 1 gusting 4 2.8
2019-Sep-13 23:45 343 2.8
2019-Sep-13 23:30 346 3.3
2019-Sep-13 23:15 358 1 gusting 2 3.9
2019-Sep-13 23:00 357 4.4
2019-Sep-13 22:45 358 5.0
2019-Sep-13 22:30 295 4 gusting 10 5.6
2019-Sep-13 22:15 320 7 gusting 13 5.6
2019-Sep-13 22:02 264 4 gusting 6 6.1
2019-Sep-13 21:46 320 6 gusting 11 6.7
2019-Sep-13 21:31 283 6 gusting 11 6.7
2019-Sep-13 21:17 320 6 gusting 12 6.7
2019-Sep-13 21:02 237 7 gusting 11 6.1
2019-Sep-13 20:46 320 6 gusting 8 6.1
2019-Sep-13 20:31 295 4 gusting 7 6.7
2019-Sep-13 20:17 257 5 gusting 12 7.2
2019-Sep-13 20:01 276 6 gusting 10 7.8
2019-Sep-13 19:45 320 5 gusting 10 7.8
2019-Sep-13 19:30 250 6 gusting 12 7.8
2019-Sep-13 19:15 259 6 gusting 11 7.8
2019-Sep-13 19:00 259 6 gusting 11 7.8
2019-Sep-13 18:45 258 4 gusting 9 8.3
2019-Sep-13 18:30 261 6 gusting 9 8.3
2019-Sep-13 18:15 266 6 gusting 10 8.3
2019-Sep-13 18:02 252 6 gusting 10 8.9
2019-Sep-13 17:47 241 5 gusting 9 8.9
2019-Sep-13 17:31 248 5 gusting 9 9.4
2019-Sep-13 17:16 259 4 gusting 6 10.0
2019-Sep-13 17:02 242 3 gusting 5 10.6
2019-Sep-13 16:47 246 1 gusting 5 11.1
2019-Sep-13 16:31 279 3 gusting 6 11.1
2019-Sep-13 16:16 293 0 gusting 3 11.7
2019-Sep-13 16:02 320 0 gusting 5 12.2
2019-Sep-13 15:46 290 4 gusting 7 12.8
2019-Sep-13 15:31 315 2 gusting 6 13.3
2019-Sep-13 15:17 299 4 gusting 16 13.9
2019-Sep-13 15:02 332 3 gusting 6 13.9
2019-Sep-13 14:46 292 2 gusting 7 13.9
2019-Sep-13 14:31 292 2 gusting 13 14.4
2019-Sep-13 14:17 282 8 gusting 14 14.4
2019-Sep-13 14:01 310 8 gusting 17 15.0